createdAt,value
2023-11-15T00:01:58.315Z,100948.44
2023-11-15T00:04:25.366Z,100937.09
2023-11-15T00:06:53.044Z,100940.53
2023-11-15T00:09:20.017Z,100949.31
2023-11-15T00:11:47.054Z,100947.53
2023-11-15T00:14:13.985Z,100963.31
2023-11-15T00:16:40.933Z,100958.06
2023-11-15T00:19:08.865Z,100963.38
2023-11-15T00:21:36.324Z,100970.38
2023-11-15T00:24:03.571Z,100977.38
2023-11-15T00:26:30.614Z,100975.56
2023-11-15T00:28:58.446Z,100975.53
2023-11-15T00:31:25.762Z,100979.94
2023-11-15T00:33:52.986Z,100979.94
2023-11-15T00:36:21.144Z,100985.22
2023-11-15T00:38:50.710Z,100993.13
2023-11-15T00:41:17.804Z,100996.59
2023-11-15T00:43:45.304Z,100993.09
2023-11-15T00:46:14.754Z,100991.31
2023-11-15T00:48:42.079Z,101000.09
2023-11-15T00:51:09.361Z,100998.34
2023-11-15T00:53:36.314Z,101004.44
2023-11-15T00:56:03.541Z,101010.53
2023-11-15T00:58:32.125Z,101006.16
2023-11-15T01:01:01.085Z,101014.91
2023-11-15T01:03:28.279Z,101016.69
2023-11-15T01:05:57.645Z,101023.75
2023-11-15T01:08:25.027Z,101021.09
2023-11-15T01:10:55.864Z,101029.84
2023-11-15T01:13:24.521Z,101022.84
2023-11-15T01:15:52.728Z,101028.94
2023-11-15T01:18:22.329Z,101033.38
2023-11-15T01:20:51.069Z,101032.41
2023-11-15T01:23:18.811Z,101036.72
2023-11-15T01:25:45.840Z,101036.75
2023-11-15T01:28:12.743Z,101048.97
2023-11-15T01:30:39.743Z,101050.69
2023-11-15T01:33:06.778Z,101056.88
2023-11-15T01:35:34.211Z,101059.53
2023-11-15T01:38:01.879Z,101061.31
2023-11-15T01:40:34.952Z,101067.38
2023-11-15T01:43:02.794Z,101069.09
2023-11-15T01:45:29.754Z,101073.50
2023-11-15T01:47:57.425Z,101081.41
2023-11-15T01:50:24.755Z,101077.91
2023-11-15T01:52:51.809Z,101081.34
2023-11-15T01:55:22.284Z,101085.72
2023-11-15T01:57:50.333Z,101088.38
2023-11-15T02:00:17.716Z,101105.06
2023-11-15T02:02:44.849Z,101093.59
2023-11-15T02:05:12.078Z,101104.09
2023-11-15T02:07:39.768Z,101102.31
2023-11-15T02:10:09.137Z,101111.94
2023-11-15T02:12:36.226Z,101112.84
2023-11-15T02:15:03.465Z,101113.75
2023-11-15T02:17:30.480Z,101111.06
2023-11-15T02:19:57.919Z,101117.16
2023-11-15T02:22:27.133Z,101118.81
2023-11-15T02:24:54.163Z,101118.84
2023-11-15T02:27:21.300Z,101117.09
2023-11-15T02:29:48.251Z,101124.97
2023-11-15T02:32:15.847Z,101126.81
2023-11-15T02:34:42.821Z,101128.63
2023-11-15T02:37:10.280Z,101132.97
2023-11-15T02:39:37.260Z,101139.09
2023-11-15T02:42:04.597Z,101142.59
2023-11-15T02:44:33.427Z,101136.38
2023-11-15T02:47:00.446Z,101138.09
2023-11-15T02:49:27.427Z,101138.94
2023-11-15T02:51:54.523Z,101142.50
2023-11-15T02:54:21.506Z,101142.50
2023-11-15T02:56:48.448Z,101138.13
2023-11-15T02:59:15.489Z,101138.09
2023-11-15T03:01:49.394Z,101133.75
2023-11-15T03:04:16.545Z,101142.53
2023-11-15T03:06:44.165Z,101138.09
2023-11-15T03:09:11.260Z,101137.25
2023-11-15T03:11:38.288Z,101141.56
2023-11-15T03:14:05.288Z,101144.19
2023-11-15T03:16:32.371Z,101145.13
2023-11-15T03:18:59.354Z,101147.72
2023-11-15T03:21:26.527Z,101160.81
2023-11-15T03:23:53.629Z,101161.75
2023-11-15T03:26:20.562Z,101161.75
2023-11-15T03:28:47.522Z,101163.53
2023-11-15T03:31:14.474Z,101168.78
2023-11-15T03:33:44.548Z,101167.84
2023-11-15T03:36:11.716Z,101173.13
2023-11-15T03:38:38.817Z,101169.56
2023-11-15T03:41:06.141Z,101162.50
2023-11-15T03:43:33.177Z,101180.00
2023-11-15T03:46:00.671Z,101187.03
2023-11-15T03:48:28.530Z,101179.09
2023-11-15T03:50:55.525Z,101188.72
2023-11-15T03:53:22.912Z,101192.16
2023-11-15T03:55:50.163Z,101191.31
2023-11-15T03:58:17.156Z,101191.28
2023-11-15T04:00:44.063Z,101192.06
2023-11-15T04:03:11.357Z,101198.16
2023-11-15T04:05:38.518Z,101198.97
2023-11-15T04:08:05.501Z,101190.22
2023-11-15T04:10:32.626Z,101197.22
2023-11-15T04:12:59.584Z,101197.28
2023-11-15T04:15:26.730Z,101197.16
2023-11-15T04:17:53.730Z,101198.91
2023-11-15T04:20:22.596Z,101203.25
2023-11-15T04:22:49.504Z,101214.66
2023-11-15T04:25:16.450Z,101217.28
2023-11-15T04:27:43.644Z,101222.63
2023-11-15T04:30:11.396Z,101222.56
2023-11-15T04:32:38.574Z,101215.53
2023-11-15T04:35:07.041Z,101226.81
2023-11-15T04:37:35.679Z,101230.31
2023-11-15T04:40:02.685Z,101228.66
2023-11-15T04:42:30.574Z,101240.91
2023-11-15T04:44:58.292Z,101240.00
2023-11-15T04:47:25.388Z,101240.94
2023-11-15T04:49:52.628Z,101253.22
2023-11-15T04:52:19.550Z,101250.59
2023-11-15T04:54:46.559Z,101256.66
2023-11-15T04:57:13.484Z,101258.41
2023-11-15T04:59:40.984Z,101260.97
2023-11-15T05:02:07.921Z,101266.16
2023-11-15T05:04:35.113Z,101260.91
2023-11-15T05:07:02.211Z,101266.22
2023-11-15T05:09:29.217Z,101267.22
2023-11-15T05:11:56.218Z,101272.44
2023-11-15T05:14:23.301Z,101269.78
2023-11-15T05:16:50.258Z,101265.44
2023-11-15T05:19:17.229Z,101272.44
2023-11-15T05:21:44.643Z,101272.34
2023-11-15T05:24:12.174Z,101281.94
2023-11-15T05:26:39.392Z,101270.47
2023-11-15T05:29:06.725Z,101274.78
2023-11-15T05:31:33.796Z,101282.63
2023-11-15T05:34:00.963Z,101278.19
2023-11-15T05:36:27.967Z,101286.16
2023-11-15T05:38:54.989Z,101289.59
2023-11-15T05:41:24.646Z,101294.88
2023-11-15T05:43:54.022Z,101307.03
2023-11-15T05:46:21.597Z,101296.53
2023-11-15T05:48:48.677Z,101290.16
2023-11-15T05:51:15.661Z,101289.31
2023-11-15T05:53:44.900Z,101294.69
2023-11-15T05:56:14.076Z,101295.38
2023-11-15T05:58:42.495Z,101301.50
2023-11-15T06:01:10.147Z,101302.25
2023-11-15T06:03:37.266Z,101306.44
2023-11-15T06:06:05.322Z,101303.06
2023-11-15T06:08:32.277Z,101303.91
2023-11-15T06:10:59.830Z,101309.19
2023-11-15T06:13:26.780Z,101304.78
2023-11-15T06:15:53.766Z,101305.56
2023-11-15T06:18:20.868Z,101307.25
2023-11-15T06:20:48.915Z,101302.78
2023-11-15T06:23:15.935Z,101296.56
2023-11-15T06:25:45.401Z,101300.78
2023-11-15T06:28:12.620Z,101306.94
2023-11-15T06:30:39.748Z,101305.97
2023-11-15T06:33:06.921Z,101306.66
2023-11-15T06:35:34.003Z,101316.34
2023-11-15T06:38:02.525Z,101313.72
2023-11-15T06:40:29.510Z,101326.69
2023-11-15T06:42:57.459Z,101324.13
2023-11-15T06:45:27.666Z,101347.03
2023-11-15T06:47:55.094Z,101348.81
2023-11-15T06:50:27.078Z,101359.13
2023-11-15T06:52:54.021Z,101354.75
2023-11-15T06:55:21.154Z,101348.91
2023-11-15T06:57:48.122Z,101343.13
2023-11-15T07:00:15.597Z,101330.28
2023-11-15T07:02:43.032Z,101327.97
2023-11-15T07:05:12.118Z,101314.06
2023-11-15T07:07:39.397Z,101317.53
2023-11-15T07:10:07.731Z,101320.38
2023-11-15T07:12:38.061Z,101325.78
2023-11-15T07:15:09.099Z,101322.31
2023-11-15T07:17:36.369Z,101325.94
2023-11-15T07:20:07.592Z,101329.44
2023-11-15T07:22:36.828Z,101328.53
2023-11-15T07:25:09.812Z,101337.44
2023-11-15T07:27:37.772Z,101336.59
2023-11-15T07:30:09.192Z,101332.25
2023-11-15T07:32:36.406Z,101325.28
2023-11-15T07:35:04.427Z,101329.66
2023-11-15T07:37:31.674Z,101341.13
2023-11-15T07:39:58.773Z,101337.59
2023-11-15T07:42:25.722Z,101343.81
2023-11-15T07:44:52.979Z,101349.97
2023-11-15T07:47:19.975Z,101344.63
2023-11-15T07:49:47.163Z,101355.97
2023-11-15T07:52:14.122Z,101352.44
2023-11-15T07:54:41.129Z,101364.91
2023-11-15T07:57:09.259Z,101367.59
2023-11-15T07:59:37.180Z,101371.16
2023-11-15T08:02:04.315Z,101376.47
2023-11-15T08:04:31.422Z,101379.00
2023-11-15T08:06:58.679Z,101385.25
2023-11-15T08:09:26.428Z,101391.47
2023-11-15T08:11:56.760Z,101392.28
2023-11-15T08:14:24.265Z,101394.94
2023-11-15T08:16:51.384Z,101390.50
2023-11-15T08:19:21.856Z,101402.03
2023-11-15T08:21:49.671Z,101403.84
2023-11-15T08:24:26.572Z,101399.41
2023-11-15T08:26:57.509Z,101404.69
2023-11-15T08:29:24.924Z,101401.13
2023-11-15T08:31:51.985Z,101410.75
2023-11-15T08:34:23.782Z,101401.94
2023-11-15T08:36:51.961Z,101408.13
2023-11-15T08:39:19.110Z,101404.63
2023-11-15T08:41:48.052Z,101409.94
2023-11-15T08:44:19.450Z,101411.75
2023-11-15T08:46:46.986Z,101418.59
2023-11-15T08:49:17.468Z,101417.81
2023-11-15T08:51:52.047Z,101418.63
2023-11-15T08:54:19.454Z,101419.41
2023-11-15T08:56:47.105Z,101408.81
2023-11-15T08:59:20.224Z,101410.47
2023-11-15T09:01:48.302Z,101406.06
2023-11-15T09:04:17.390Z,101398.25
2023-11-15T09:06:52.277Z,101400.09
2023-11-15T09:09:19.218Z,101405.28
2023-11-15T09:11:46.812Z,101409.00
2023-11-15T09:14:15.548Z,101411.59
2023-11-15T09:16:43.237Z,101411.63
2023-11-15T09:19:16.782Z,101408.84
2023-11-15T09:21:47.101Z,101417.75
2023-11-15T09:24:22.583Z,101430.09
2023-11-15T09:26:49.799Z,101429.16
2023-11-15T09:29:16.928Z,101430.06
2023-11-15T09:31:46.626Z,101428.41
2023-11-15T09:34:13.649Z,101418.69
2023-11-15T09:36:40.699Z,101432.81
2023-11-15T09:39:10.860Z,101420.41
2023-11-15T09:41:38.530Z,101420.25
2023-11-15T09:44:12.249Z,101429.19
2023-11-15T09:46:39.899Z,101419.19
2023-11-15T09:49:08.982Z,101424.47
2023-11-15T09:51:38.833Z,101425.59
2023-11-15T09:54:13.100Z,101413.22
2023-11-15T09:56:50.903Z,101414.94
2023-11-15T09:59:21.890Z,101424.56
2023-11-15T10:01:50.914Z,101412.25
2023-11-15T10:04:36.244Z,101408.81
2023-11-15T10:07:06.414Z,101419.44
2023-11-15T10:09:40.649Z,101412.38
2023-11-15T10:12:09.399Z,101417.56
2023-11-15T10:14:53.185Z,101424.47
2023-11-15T10:17:22.011Z,101427.97
2023-11-15T10:19:49.676Z,101421.63
2023-11-15T10:22:19.022Z,101426.03
2023-11-15T10:25:07.200Z,101423.47
2023-11-15T10:27:39.073Z,101427.28
2023-11-15T10:30:23.563Z,101431.53
2023-11-15T10:32:52.807Z,101434.22
2023-11-15T10:35:32.780Z,101441.31
2023-11-15T10:38:00.101Z,101437.72
2023-11-15T10:40:27.730Z,101437.81
2023-11-15T10:42:56.510Z,101438.78
2023-11-15T10:45:25.293Z,101445.06
2023-11-15T10:48:06.174Z,101432.66
2023-11-15T10:50:38.862Z,101442.44
2023-11-15T10:53:11.236Z,101436.09
2023-11-15T10:55:41.818Z,101435.34
2023-11-15T10:58:12.844Z,101425.69
2023-11-15T11:00:47.000Z,101432.78
2023-11-15T11:03:14.634Z,101434.63
2023-11-15T11:06:05.012Z,101435.53
2023-11-15T11:08:41.915Z,101437.31
2023-11-15T11:11:12.053Z,101430.19
2023-11-15T11:13:41.771Z,101445.94
2023-11-15T11:16:36.116Z,101446.03
2023-11-15T11:19:29.211Z,101438.16
2023-11-15T11:22:05.751Z,101438.22
2023-11-15T11:25:07.715Z,101438.25
2023-11-15T11:27:37.859Z,101445.34
2023-11-15T11:30:16.929Z,101443.53
2023-11-15T11:32:46.080Z,101454.06
2023-11-15T11:35:18.900Z,101454.00
2023-11-15T11:37:55.051Z,101452.22
2023-11-15T11:40:29.973Z,101437.88
2023-11-15T11:43:23.476Z,101430.81
2023-11-15T11:45:55.421Z,101436.09
2023-11-15T11:48:28.094Z,101420.19
2023-11-15T11:51:06.444Z,101418.44
2023-11-15T11:53:40.923Z,101421.13
2023-11-15T11:56:11.017Z,101421.94
2023-11-15T11:58:40.634Z,101417.56
2023-11-15T12:01:10.264Z,101416.88
2023-11-15T12:03:41.545Z,101416.91
2023-11-15T12:06:13.552Z,101415.94
2023-11-15T12:08:58.417Z,101415.97
2023-11-15T12:11:25.548Z,101420.09
2023-11-15T12:13:53.795Z,101417.00
2023-11-15T12:16:26.714Z,101415.50
2023-11-15T12:19:09.392Z,101426.19
2023-11-15T12:21:45.748Z,101419.19
2023-11-15T12:24:13.196Z,101419.19
2023-11-15T12:26:47.390Z,101418.50
2023-11-15T12:29:24.088Z,101418.50
2023-11-15T12:31:57.563Z,101409.72
2023-11-15T12:34:25.851Z,101423.03
2023-11-15T12:36:53.495Z,101421.19
2023-11-15T12:39:23.293Z,101423.66
2023-11-15T12:41:53.851Z,101433.47
2023-11-15T12:44:21.535Z,101428.09
2023-11-15T12:46:55.626Z,101427.28
2023-11-15T12:49:25.543Z,101426.38
2023-11-15T12:51:55.780Z,101433.44
2023-11-15T12:54:23.054Z,101434.50
2023-11-15T12:57:13.011Z,101431.94
2023-11-15T12:59:40.281Z,101432.84
2023-11-15T13:02:07.700Z,101425.81
2023-11-15T13:04:52.346Z,101426.72
2023-11-15T13:07:19.467Z,101430.22
2023-11-15T13:09:47.005Z,101435.53
2023-11-15T13:12:24.229Z,101434.59
2023-11-15T13:14:51.881Z,101442.56
2023-11-15T13:17:18.931Z,101454.03
2023-11-15T13:19:45.879Z,101450.38
2023-11-15T13:22:12.797Z,101444.88
2023-11-15T13:24:40.609Z,101455.50
2023-11-15T13:27:07.618Z,101458.16
2023-11-15T13:29:34.597Z,101455.63
2023-11-15T13:32:01.594Z,101461.91
2023-11-15T13:34:29.384Z,101454.91
2023-11-15T13:36:56.343Z,101459.31
2023-11-15T13:39:23.284Z,101458.41
2023-11-15T13:41:50.334Z,101448.78
2023-11-15T13:44:17.391Z,101440.03
2023-11-15T13:46:46.354Z,101454.94
2023-11-15T13:49:15.390Z,101459.41
2023-11-15T13:51:42.356Z,101452.34
2023-11-15T13:54:10.080Z,101447.06
2023-11-15T13:56:38.080Z,101445.28
2023-11-15T13:59:07.480Z,101457.66
2023-11-15T14:01:35.032Z,101465.44
2023-11-15T14:04:02.059Z,101455.78
2023-11-15T14:06:29.139Z,101458.47
2023-11-15T14:09:00.332Z,101460.03
2023-11-15T14:11:30.444Z,101456.22
2023-11-15T14:13:58.312Z,101466.22
2023-11-15T14:16:25.710Z,101468.06
2023-11-15T14:18:53.262Z,101462.00
2023-11-15T14:21:21.278Z,101470.88
2023-11-15T14:23:48.499Z,101478.00
2023-11-15T14:26:15.906Z,101475.38
2023-11-15T14:28:46.999Z,101480.69
2023-11-15T14:31:15.047Z,101472.84
2023-11-15T14:33:42.135Z,101478.03
2023-11-15T14:36:11.156Z,101486.84
2023-11-15T14:38:38.463Z,101491.31
2023-11-15T14:41:05.981Z,101487.78
2023-11-15T14:43:33.212Z,101494.78
2023-11-15T14:46:00.219Z,101503.53
2023-11-15T14:48:27.989Z,101496.53
2023-11-15T14:50:55.417Z,101495.50
2023-11-15T14:53:22.376Z,101494.66
2023-11-15T14:55:49.403Z,101491.28
2023-11-15T14:58:17.886Z,101500.81
2023-11-15T15:00:44.933Z,101486.72
2023-11-15T15:03:13.018Z,101499.00
2023-11-15T15:05:41.375Z,101489.25
2023-11-15T15:08:14.766Z,101503.44
2023-11-15T15:10:42.712Z,101495.69
2023-11-15T15:13:10.367Z,101498.31
2023-11-15T15:15:38.758Z,101493.03
2023-11-15T15:18:10.839Z,101502.69
2023-11-15T15:20:40.906Z,101496.50
2023-11-15T15:23:09.519Z,101506.22
2023-11-15T15:25:38.613Z,101503.59
2023-11-15T15:28:06.147Z,101500.13
2023-11-15T15:30:35.829Z,101495.84
2023-11-15T15:33:03.651Z,101504.59
2023-11-15T15:35:31.919Z,101511.81
2023-11-15T15:37:59.757Z,101517.16
2023-11-15T15:40:29.589Z,101517.22
2023-11-15T15:42:56.991Z,101528.66
2023-11-15T15:45:27.632Z,101529.50
2023-11-15T15:47:56.400Z,101536.56
2023-11-15T15:50:23.572Z,101537.47
2023-11-15T15:52:50.517Z,101548.09
2023-11-15T15:55:17.539Z,101541.91
2023-11-15T15:57:44.540Z,101541.88
2023-11-15T16:00:13.426Z,101520.72
2023-11-15T16:02:40.609Z,101528.31
2023-11-15T16:05:11.757Z,101537.47
2023-11-15T16:07:38.846Z,101540.59
2023-11-15T16:10:06.744Z,101535.13
2023-11-15T16:12:35.623Z,101541.22
2023-11-15T16:15:07.852Z,101543.66
2023-11-15T16:17:38.035Z,101547.88
2023-11-15T16:20:06.159Z,101551.28
2023-11-15T16:22:33.290Z,101563.63
2023-11-15T16:25:00.263Z,101562.72
2023-11-15T16:27:34.378Z,101565.25
2023-11-15T16:30:10.703Z,101570.16
2023-11-15T16:32:37.823Z,101580.69
2023-11-15T16:35:06.721Z,101570.16
2023-11-15T16:37:36.861Z,101577.88
2023-11-15T16:40:06.582Z,101589.28
2023-11-15T16:42:34.383Z,101578.78
2023-11-15T16:45:02.669Z,101584.81
2023-11-15T16:47:30.009Z,101583.75
2023-11-15T16:49:58.921Z,101579.34
2023-11-15T16:52:26.135Z,101574.84
2023-11-15T16:54:53.386Z,101578.31
2023-11-15T16:57:20.590Z,101591.16
2023-11-15T16:59:50.263Z,101593.72
2023-11-15T17:02:17.555Z,101588.41
2023-11-15T17:04:44.513Z,101586.69
2023-11-15T17:07:11.904Z,101584.19
2023-11-15T17:09:38.866Z,101587.56
2023-11-15T17:12:06.712Z,101589.72
2023-11-15T17:14:34.396Z,101588.22
2023-11-15T17:17:01.709Z,101594.38
2023-11-15T17:19:28.868Z,101607.41
2023-11-15T17:21:58.787Z,101602.06
2023-11-15T17:24:26.988Z,101610.72
2023-11-15T17:26:54.323Z,101603.78
2023-11-15T17:29:21.503Z,101610.63
2023-11-15T17:31:48.673Z,101603.78
2023-11-15T17:34:15.714Z,101611.63
2023-11-15T17:36:42.791Z,101614.00
2023-11-15T17:39:13.422Z,101609.66
2023-11-15T17:41:41.394Z,101603.41
2023-11-15T17:44:12.822Z,101610.31
2023-11-15T17:46:43.624Z,101610.25
2023-11-15T17:49:12.151Z,101605.50
2023-11-15T17:51:39.657Z,101606.50
2023-11-15T17:54:12.419Z,101605.34
2023-11-15T17:56:39.491Z,101608.88
2023-11-15T17:59:06.756Z,101616.84
2023-11-15T18:01:34.804Z,101611.66
2023-11-15T18:04:03.250Z,101608.03
2023-11-15T18:06:30.353Z,101614.81
2023-11-15T18:08:57.354Z,101613.22
2023-11-15T18:11:24.382Z,101622.94
2023-11-15T18:13:51.281Z,101611.50
2023-11-15T18:16:18.464Z,101618.53
2023-11-15T18:18:45.455Z,101611.41
2023-11-15T18:21:12.650Z,101612.38
2023-11-15T18:23:39.644Z,101620.22
2023-11-15T18:26:06.610Z,101616.59
2023-11-15T18:28:34.819Z,101622.69
2023-11-15T18:31:07.300Z,101621.75
2023-11-15T18:36:01.939Z,101625.03
2023-11-15T18:38:28.953Z,101634.53
2023-11-15T18:40:55.956Z,101620.63
2023-11-15T18:43:23.063Z,101626.81
2023-11-15T18:45:50.086Z,101626.09
2023-11-15T18:48:17.239Z,101624.94
2023-11-15T18:50:44.181Z,101623.28
2023-11-15T18:53:13.758Z,101623.25
2023-11-15T18:55:40.773Z,101620.53
2023-11-15T18:58:08.413Z,101627.56
2023-11-15T19:00:37.945Z,101624.97
2023-11-15T19:03:07.042Z,101630.13
2023-11-15T19:05:34.925Z,101622.19
2023-11-15T19:08:02.016Z,101624.88
2023-11-15T19:10:31.336Z,101618.69
2023-11-15T19:12:58.317Z,101616.69
2023-11-15T19:15:25.853Z,101616.53
2023-11-15T19:17:53.292Z,101617.13
2023-11-15T19:20:22.875Z,101611.13
2023-11-15T19:22:51.517Z,101626.13
2023-11-15T19:25:18.625Z,101625.28
2023-11-15T19:27:46.581Z,101626.69
2023-11-15T19:30:14.112Z,101623.16
2023-11-15T19:32:41.498Z,101623.84
2023-11-15T19:35:09.956Z,101619.53
2023-11-15T19:37:37.553Z,101620.22
2023-11-15T19:40:12.496Z,101627.19
2023-11-15T19:42:40.031Z,101626.19
2023-11-15T19:45:09.195Z,101623.56
2023-11-15T19:47:36.441Z,101622.97
2023-11-15T19:50:03.986Z,101621.91
2023-11-15T19:52:31.119Z,101627.25
2023-11-15T19:54:58.623Z,101617.56
2023-11-15T19:57:27.818Z,101613.88
2023-11-15T19:59:56.150Z,101617.03
2023-11-15T20:02:29.206Z,101618.00
2023-11-15T20:04:58.914Z,101614.41
2023-11-15T20:07:27.947Z,101609.13
2023-11-15T20:09:54.968Z,101617.88
2023-11-15T20:12:24.594Z,101618.44
2023-11-15T20:14:51.893Z,101618.50
2023-11-15T20:17:18.956Z,101622.22
2023-11-15T20:19:45.948Z,101612.41
2023-11-15T20:22:12.893Z,101616.88
2023-11-15T20:24:39.917Z,101611.41
2023-11-15T20:27:07.008Z,101614.09
2023-11-15T20:29:34.000Z,101613.25
2023-11-15T20:32:01.004Z,101619.22
2023-11-15T20:34:28.005Z,101616.59
2023-11-15T20:36:55.172Z,101623.56
2023-11-15T20:39:25.176Z,101618.25
2023-11-15T20:41:54.491Z,101625.25
2023-11-15T20:44:21.673Z,101628.59
2023-11-15T20:46:49.381Z,101625.13
2023-11-15T20:49:16.477Z,101628.59
2023-11-15T20:51:53.196Z,101625.00
2023-11-15T20:54:25.850Z,101625.00
2023-11-15T20:56:53.086Z,101626.81
2023-11-15T20:59:20.053Z,101625.06
2023-11-15T21:01:49.761Z,101619.88
2023-11-15T21:04:21.326Z,101614.66
2023-11-15T21:06:49.763Z,101615.44
2023-11-15T21:09:16.979Z,101614.66
2023-11-15T21:11:44.619Z,101617.22
2023-11-15T21:14:11.895Z,101613.88
2023-11-15T21:16:40.161Z,101614.75
2023-11-15T21:19:09.874Z,101613.81
2023-11-15T21:21:38.369Z,101619.22
2023-11-15T21:24:09.389Z,101618.38
2023-11-15T21:26:36.546Z,101621.84
2023-11-15T21:29:09.596Z,101634.94
2023-11-15T21:31:41.005Z,101619.22
2023-11-15T21:34:09.153Z,101620.28
2023-11-15T21:36:38.146Z,101619.31
2023-11-15T21:39:10.336Z,101609.72
2023-11-15T21:41:37.441Z,101626.34
2023-11-15T21:44:05.389Z,101622.00
2023-11-15T21:46:32.472Z,101622.88
2023-11-15T21:49:01.434Z,101627.34
2023-11-15T21:51:28.614Z,101629.91
2023-11-15T21:53:55.795Z,101617.75
2023-11-15T21:56:22.856Z,101620.31
2023-11-15T21:58:50.614Z,101621.31
2023-11-15T22:01:17.621Z,101629.97
2023-11-15T22:03:44.689Z,101630.03
2023-11-15T22:06:12.049Z,101625.72
2023-11-15T22:08:40.102Z,101630.88
2023-11-15T22:11:07.628Z,101629.25
2023-11-15T22:13:34.911Z,101630.81
2023-11-15T22:16:01.974Z,101634.50
2023-11-15T22:18:30.514Z,101637.06
2023-11-15T22:20:58.440Z,101637.06
2023-11-15T22:23:25.893Z,101634.44
2023-11-15T22:25:53.141Z,101631.81
2023-11-15T22:28:20.585Z,101627.66
2023-11-15T22:30:48.213Z,101634.63
2023-11-15T22:33:15.512Z,101629.31
2023-11-15T22:35:49.186Z,101631.03
2023-11-15T22:38:16.922Z,101641.50
2023-11-15T22:40:44.123Z,101639.72
2023-11-15T22:43:11.627Z,101638.00
2023-11-15T22:45:38.756Z,101629.31
2023-11-15T22:48:07.148Z,101626.63
2023-11-15T22:50:34.197Z,101629.44
2023-11-15T22:53:01.230Z,101626.81
2023-11-15T22:55:28.194Z,101626.81
2023-11-15T22:57:55.204Z,101621.59
2023-11-15T23:00:34.965Z,101627.03
2023-11-15T23:03:12.017Z,101634.91
2023-11-15T23:05:41.600Z,101626.16
2023-11-15T23:08:11.846Z,101625.25
2023-11-15T23:10:41.565Z,101630.66
2023-11-15T23:13:08.472Z,101629.78
2023-11-15T23:15:35.564Z,101628.81
2023-11-15T23:18:04.815Z,101627.16
2023-11-15T23:20:35.136Z,101627.31
2023-11-15T23:23:03.962Z,101628.31
2023-11-15T23:25:31.119Z,101624.75
2023-11-15T23:27:58.186Z,101625.63
2023-11-15T23:30:25.786Z,101621.34
2023-11-15T23:32:53.635Z,101624.00
2023-11-15T23:35:21.421Z,101617.81
2023-11-15T23:37:49.279Z,101624.91
2023-11-15T23:40:16.653Z,101624.78
2023-11-15T23:42:46.441Z,101627.47
2023-11-15T23:45:15.306Z,101626.56
2023-11-15T23:47:42.492Z,101624.75
2023-11-15T23:50:10.399Z,101629.16
2023-11-15T23:52:37.769Z,101632.50
2023-11-15T23:55:05.436Z,101629.88
2023-11-15T23:57:33.606Z,101618.56
